createdAt,value
2022-11-22T00:00:42.313Z,33.83
2022-11-22T00:03:45.478Z,31.33
2022-11-22T00:06:48.674Z,22.40
2022-11-22T00:09:52.088Z,37.80
2022-11-22T00:12:55.700Z,28.13
2022-11-22T00:16:03.998Z,26.13
2022-11-22T00:19:07.199Z,25.65
2022-11-22T00:22:10.453Z,31.60
2022-11-22T00:25:14.504Z,25.53
2022-11-22T00:28:17.897Z,22.42
2022-11-22T00:31:21.099Z,22.40
2022-11-22T00:34:24.433Z,23.08
2022-11-22T00:37:27.645Z,27.70
2022-11-22T00:40:32.119Z,23.60
2022-11-22T00:43:35.509Z,24.73
2022-11-22T00:46:38.993Z,21.92
2022-11-22T00:49:42.223Z,24.60
2022-11-22T00:52:45.440Z,24.73
2022-11-22T00:55:49.087Z,23.05
2022-11-22T00:58:52.707Z,21.47
2022-11-22T01:01:55.939Z,18.08
2022-11-22T01:04:59.314Z,23.17
2022-11-22T01:08:02.542Z,22.50
2022-11-22T01:11:05.905Z,21.23
2022-11-22T01:14:09.131Z,24.65
2022-11-22T01:17:12.366Z,20.17
2022-11-22T01:20:15.696Z,16.97
2022-11-22T01:23:18.898Z,17.90
2022-11-22T01:26:22.201Z,18.65
2022-11-22T01:29:25.487Z,18.67
2022-11-22T01:32:28.739Z,17.90
2022-11-22T01:35:31.904Z,18.83
2022-11-22T01:38:35.312Z,24.17
2022-11-22T01:41:38.514Z,19.88
2022-11-22T01:44:43.249Z,25.17
2022-11-22T01:47:46.465Z,20.67
2022-11-22T01:50:56.221Z,23.00
2022-11-22T01:54:04.238Z,25.80
2022-11-22T01:57:16.969Z,29.97
2022-11-22T02:00:20.810Z,25.95
2022-11-22T02:03:25.953Z,27.73
2022-11-22T02:06:39.572Z,27.98
2022-11-22T02:09:43.536Z,26.97
2022-11-22T02:12:47.038Z,24.15
2022-11-22T02:15:51.812Z,25.90
2022-11-22T02:18:55.144Z,26.75
2022-11-22T02:22:05.810Z,29.70
2022-11-22T02:25:42.127Z,27.58
2022-11-22T02:28:45.525Z,31.27
2022-11-22T02:31:48.838Z,25.02
2022-11-22T02:34:52.230Z,25.45
2022-11-22T02:37:59.153Z,26.33
2022-11-22T02:41:11.543Z,26.25
2022-11-22T02:44:15.090Z,23.93
2022-11-22T02:47:18.340Z,24.55
2022-11-22T02:50:21.683Z,25.55
2022-11-22T02:53:24.944Z,25.63
2022-11-22T02:56:28.154Z,27.17
2022-11-22T02:59:31.711Z,28.80
2022-11-22T03:02:35.280Z,29.23
2022-11-22T03:05:38.509Z,27.08
2022-11-22T03:08:41.777Z,26.27
2022-11-22T03:11:45.277Z,29.58
2022-11-22T03:14:48.509Z,27.42
2022-11-22T03:17:58.811Z,27.70
2022-11-22T03:21:07.716Z,28.75
2022-11-22T03:24:11.747Z,27.83
2022-11-22T03:27:14.974Z,29.25
2022-11-22T03:30:19.697Z,29.40
2022-11-22T03:33:22.916Z,35.22
2022-11-22T03:36:26.137Z,31.92
2022-11-22T03:39:29.608Z,32.03
2022-11-22T03:42:33.175Z,30.80
2022-11-22T03:45:36.385Z,33.97
2022-11-22T03:48:39.477Z,34.47
2022-11-22T03:51:42.774Z,30.77
2022-11-22T03:54:46.089Z,30.83
2022-11-22T03:57:49.284Z,32.90
2022-11-22T04:00:52.548Z,30.33
2022-11-22T04:03:55.804Z,30.35
2022-11-22T04:06:58.933Z,31.83
2022-11-22T04:10:02.164Z,31.10
2022-11-22T04:13:05.412Z,31.58
2022-11-22T04:16:08.777Z,28.92
2022-11-22T04:19:12.020Z,30.83
2022-11-22T04:22:15.481Z,26.67
2022-11-22T04:25:18.613Z,23.85
2022-11-22T04:28:40.417Z,26.87
2022-11-22T04:32:07.024Z,24.83
2022-11-22T04:35:10.188Z,25.63
2022-11-22T04:38:14.055Z,24.95
2022-11-22T04:41:17.538Z,23.27
2022-11-22T04:44:39.444Z,24.40
2022-11-22T04:48:00.688Z,23.70
2022-11-22T04:51:23.667Z,24.10
2022-11-22T04:54:26.928Z,21.02
2022-11-22T04:57:30.044Z,22.05
2022-11-22T05:00:33.825Z,24.33
2022-11-22T05:03:37.093Z,24.83
2022-11-22T05:06:40.274Z,22.17
2022-11-22T05:09:46.196Z,24.88
2022-11-22T05:12:49.435Z,22.80
2022-11-22T05:15:52.922Z,22.02
2022-11-22T05:19:02.054Z,26.20
2022-11-22T05:22:06.473Z,21.85
2022-11-22T05:25:09.970Z,24.47
2022-11-22T05:28:16.171Z,24.10
2022-11-22T05:31:25.295Z,23.85
2022-11-22T05:34:28.434Z,26.27
2022-11-22T05:37:31.636Z,27.30
2022-11-22T05:40:35.029Z,25.92
2022-11-22T05:43:39.006Z,28.52
2022-11-22T05:46:42.216Z,26.93
2022-11-22T05:49:46.179Z,29.83
2022-11-22T05:52:49.290Z,26.13
2022-11-22T05:55:52.418Z,25.10
2022-11-22T05:58:55.620Z,28.60
2022-11-22T06:01:58.856Z,27.20
2022-11-22T06:05:02.040Z,29.70
2022-11-22T06:08:05.544Z,32.88
2022-11-22T06:11:15.193Z,28.92
2022-11-22T06:14:18.383Z,29.80
2022-11-22T06:17:21.501Z,27.73
2022-11-22T06:20:24.783Z,33.13
2022-11-22T06:23:28.963Z,28.30
2022-11-22T06:26:37.646Z,31.88
2022-11-22T06:29:42.853Z,29.53
2022-11-22T06:32:46.224Z,26.52
2022-11-22T06:35:49.577Z,28.38
2022-11-22T06:38:53.274Z,23.55
2022-11-22T06:41:56.475Z,27.50
2022-11-22T06:44:59.776Z,27.85
2022-11-22T06:48:03.009Z,29.95
2022-11-22T06:51:07.504Z,24.15
2022-11-22T06:54:13.698Z,28.20
2022-11-22T06:57:16.965Z,28.02
2022-11-22T07:00:20.290Z,23.58
2022-11-22T07:03:23.561Z,27.35
2022-11-22T07:06:31.616Z,25.20
2022-11-22T07:09:35.575Z,19.95
2022-11-22T07:16:44.252Z,26.02
2022-11-22T07:19:47.598Z,21.53
2022-11-22T07:22:50.975Z,21.52
2022-11-22T07:25:54.291Z,23.20
2022-11-22T07:28:57.731Z,21.35
2022-11-22T07:32:01.228Z,20.80
2022-11-22T07:35:04.988Z,18.73
2022-11-22T07:38:08.273Z,20.10
2022-11-22T07:41:12.129Z,20.65
2022-11-22T07:44:18.412Z,22.65
2022-11-22T07:47:23.240Z,21.48
2022-11-22T07:50:26.747Z,20.13
2022-11-22T07:53:30.112Z,18.42
2022-11-22T07:56:35.267Z,21.07
2022-11-22T07:59:38.540Z,19.42
2022-11-22T08:02:43.659Z,21.05
2022-11-22T08:05:47.073Z,18.80
2022-11-22T08:08:50.693Z,17.17
2022-11-22T08:11:54.388Z,18.85
2022-11-22T08:14:57.721Z,20.33
2022-11-22T08:18:01.005Z,19.48
2022-11-22T08:21:13.014Z,22.30
2022-11-22T08:27:57.421Z,21.60
2022-11-22T08:31:08.556Z,20.33
2022-11-22T08:34:14.487Z,17.35
2022-11-22T08:37:17.772Z,17.08
2022-11-22T08:40:21.119Z,17.40
2022-11-22T08:43:24.756Z,14.98
2022-11-22T08:46:28.174Z,16.60
2022-11-22T08:49:32.025Z,15.40
2022-11-22T08:52:36.271Z,13.93
2022-11-22T08:55:39.729Z,13.13
2022-11-22T08:58:49.682Z,13.52
2022-11-22T09:01:58.033Z,12.35
2022-11-22T09:05:06.531Z,19.15
2022-11-22T09:08:28.938Z,11.25
2022-11-22T09:11:34.753Z,10.63
2022-11-22T09:14:38.224Z,12.30
2022-11-22T09:17:47.733Z,13.68
2022-11-22T09:21:01.262Z,12.45
2022-11-22T09:24:04.866Z,11.27
2022-11-22T09:27:14.267Z,11.48
2022-11-22T09:30:17.761Z,11.00
2022-11-22T09:33:21.381Z,10.98
2022-11-22T09:36:28.683Z,11.38
2022-11-22T09:39:32.558Z,13.98
2022-11-22T09:42:55.582Z,15.57
2022-11-22T09:46:31.870Z,9.40
2022-11-22T09:49:37.872Z,9.85
2022-11-22T09:52:47.566Z,11.05
2022-11-22T09:55:57.574Z,10.15
2022-11-22T09:59:14.072Z,10.00
2022-11-22T10:02:43.371Z,11.83
2022-11-22T10:05:58.556Z,11.52
2022-11-22T10:09:30.401Z,9.18
2022-11-22T10:13:05.724Z,8.43
2022-11-22T10:16:34.983Z,9.27
2022-11-22T10:20:04.948Z,8.70
2022-11-22T10:23:22.932Z,9.73
2022-11-22T10:26:32.736Z,9.65
2022-11-22T10:29:47.161Z,9.35
2022-11-22T10:33:00.334Z,8.70
2022-11-22T10:36:45.440Z,8.37
2022-11-22T10:40:12.631Z,8.65
2022-11-22T10:43:20.399Z,8.63
2022-11-22T10:46:57.709Z,7.28
2022-11-22T10:50:10.469Z,7.03
2022-11-22T10:53:33.085Z,6.40
2022-11-22T10:56:43.332Z,7.95
2022-11-22T11:00:27.715Z,7.32
2022-11-22T11:03:50.359Z,6.90
2022-11-22T11:07:14.084Z,6.85
2022-11-22T11:10:29.566Z,8.10
2022-11-22T11:13:51.969Z,9.50
2022-11-22T11:16:55.626Z,6.80
2022-11-22T11:20:04.435Z,7.43
2022-11-22T11:23:15.176Z,6.60
2022-11-22T11:26:26.328Z,7.30
2022-11-22T11:30:02.628Z,5.53
2022-11-22T11:33:17.056Z,6.10
2022-11-22T11:36:23.513Z,5.38
2022-11-22T11:39:32.114Z,6.25
2022-11-22T11:42:36.136Z,5.77
2022-11-22T11:45:39.511Z,5.18
2022-11-22T11:48:53.400Z,5.30
2022-11-22T11:52:03.979Z,5.38
2022-11-22T11:55:17.514Z,4.90
2022-11-22T11:58:24.748Z,6.30
2022-11-22T12:01:28.438Z,5.88
2022-11-22T12:04:36.281Z,6.47
2022-11-22T12:07:46.472Z,5.40
2022-11-22T12:11:10.114Z,6.30
2022-11-22T12:14:22.486Z,10.63
2022-11-22T12:17:29.588Z,4.93
2022-11-22T12:21:00.658Z,7.80
2022-11-22T12:24:45.633Z,5.70
2022-11-22T12:27:49.428Z,13.18
2022-11-22T12:31:15.287Z,5.10
2022-11-22T12:34:31.631Z,5.38
2022-11-22T12:37:53.789Z,5.80
2022-11-22T12:41:00.683Z,5.35
2022-11-22T12:44:06.963Z,4.00
2022-11-22T12:47:22.014Z,7.37
2022-11-22T12:50:43.885Z,8.60
2022-11-22T12:53:48.466Z,3.85
2022-11-22T12:56:58.228Z,5.28
2022-11-22T13:00:05.478Z,6.60
2022-11-22T13:03:14.117Z,6.87
2022-11-22T13:06:23.575Z,4.50
2022-11-22T13:09:34.105Z,5.43
2022-11-22T13:12:41.792Z,5.15
2022-11-22T13:15:46.592Z,5.72
2022-11-22T13:18:59.208Z,7.43
2022-11-22T13:22:20.504Z,4.60
2022-11-22T13:25:40.737Z,5.10
2022-11-22T13:28:45.275Z,5.00
2022-11-22T13:32:13.658Z,5.30
2022-11-22T13:35:16.912Z,6.43
2022-11-22T13:38:22.633Z,6.03
2022-11-22T13:41:36.632Z,5.20
2022-11-22T13:44:52.433Z,4.20
2022-11-22T13:47:55.731Z,5.25
2022-11-22T13:51:02.821Z,6.73
2022-11-22T13:54:39.557Z,4.60
2022-11-22T13:57:44.320Z,9.57
2022-11-22T14:00:47.664Z,8.18
2022-11-22T14:03:51.789Z,5.75
2022-11-22T14:07:10.193Z,5.70
2022-11-22T14:10:33.068Z,5.65
2022-11-22T14:13:48.320Z,3.92
2022-11-22T14:17:21.038Z,5.10
2022-11-22T14:20:36.291Z,4.63
2022-11-22T14:24:03.867Z,4.20
2022-11-22T14:27:26.880Z,3.50
2022-11-22T14:30:51.852Z,4.38
2022-11-22T14:34:16.919Z,5.75
2022-11-22T14:37:20.227Z,6.55
2022-11-22T14:40:42.328Z,6.20
2022-11-22T14:43:45.771Z,5.85
2022-11-22T14:47:04.743Z,4.72
2022-11-22T14:50:36.932Z,4.68
2022-11-22T14:53:55.171Z,5.75
2022-11-22T14:57:04.611Z,6.33
2022-11-22T15:00:24.031Z,6.43
2022-11-22T15:09:11.678Z,7.05
2022-11-22T15:09:22.948Z,5.50
2022-11-22T15:11:56.181Z,5.15
2022-11-22T15:57:48.909Z,8.15
2022-11-22T16:01:17.902Z,6.97
2022-11-22T16:04:31.377Z,6.93
2022-11-22T16:07:38.965Z,7.90
2022-11-22T16:10:44.773Z,6.45
2022-11-22T16:13:48.155Z,7.38
2022-11-22T16:16:51.425Z,8.80
2022-11-22T16:20:25.841Z,8.77
2022-11-22T16:23:30.719Z,8.20
2022-11-22T16:26:34.009Z,7.72
2022-11-22T16:29:38.284Z,8.68
2022-11-22T16:32:41.902Z,7.85
2022-11-22T16:35:45.942Z,9.75
2022-11-22T16:38:49.822Z,9.37
2022-11-22T16:41:53.643Z,9.95
2022-11-22T16:45:02.428Z,7.88
2022-11-22T16:48:32.530Z,17.23
2022-11-22T16:51:36.710Z,8.23
2022-11-22T16:54:40.677Z,7.83
2022-11-22T16:57:44.264Z,9.13
2022-11-22T17:00:49.386Z,8.48
2022-11-22T17:04:00.548Z,6.45
2022-11-22T17:07:03.882Z,8.85
2022-11-22T17:10:07.988Z,7.60
2022-11-22T17:13:20.003Z,7.10
2022-11-22T17:16:23.671Z,7.07
2022-11-22T17:22:50.158Z,7.68
2022-11-22T17:25:53.951Z,7.17
2022-11-22T17:28:57.368Z,6.85
2022-11-22T17:32:00.996Z,7.13
2022-11-22T17:35:04.827Z,6.78
2022-11-22T17:38:10.258Z,7.00
2022-11-22T17:41:13.716Z,8.82
2022-11-22T17:44:18.186Z,7.28
2022-11-22T17:47:21.643Z,8.80
2022-11-22T17:50:24.951Z,7.05
2022-11-22T17:53:28.471Z,7.47
2022-11-22T17:56:33.672Z,7.50
2022-11-22T17:59:37.201Z,7.80
2022-11-22T18:02:41.580Z,6.22
2022-11-22T18:05:44.794Z,6.47
2022-11-22T18:08:49.371Z,6.22
2022-11-22T18:11:52.612Z,7.00
2022-11-22T18:14:56.157Z,8.20
2022-11-22T18:17:59.311Z,6.45
2022-11-22T18:21:03.313Z,6.33
2022-11-22T18:24:08.581Z,5.45
2022-11-22T18:27:12.216Z,6.65
2022-11-22T18:30:16.079Z,9.45
2022-11-22T18:33:19.593Z,6.13
2022-11-22T18:36:53.940Z,6.53
2022-11-22T18:39:48.860Z,8.45
2022-11-22T18:42:55.877Z,7.68
2022-11-22T18:46:02.968Z,6.95
2022-11-22T18:49:06.497Z,7.50
2022-11-22T18:52:12.067Z,7.37
2022-11-22T18:55:19.908Z,5.10
2022-11-22T18:58:23.437Z,7.07
2022-11-22T19:01:29.465Z,6.07
2022-11-22T19:04:35.575Z,7.67
2022-11-22T19:07:39.636Z,6.65
2022-11-22T19:10:44.015Z,6.88
2022-11-22T19:13:47.343Z,6.10
2022-11-22T19:16:50.878Z,4.97
2022-11-22T19:19:59.106Z,5.22
2022-11-22T19:23:02.609Z,6.22
2022-11-22T19:26:08.472Z,6.60
2022-11-22T19:29:13.041Z,5.97
2022-11-22T19:32:16.773Z,5.40
2022-11-22T19:35:20.803Z,5.82
2022-11-22T19:38:26.835Z,6.10
2022-11-22T19:41:31.960Z,6.30
2022-11-22T19:44:38.028Z,7.67
2022-11-22T19:47:41.292Z,6.97
2022-11-22T19:50:45.133Z,5.18
2022-11-22T19:53:49.208Z,6.25
2022-11-22T19:56:52.674Z,4.50
2022-11-22T20:00:00.023Z,4.87
2022-11-22T20:03:03.944Z,5.28
2022-11-22T20:06:09.135Z,4.90
2022-11-22T20:09:13.255Z,4.75
2022-11-22T20:12:16.694Z,5.65
2022-11-22T20:15:20.293Z,6.57
2022-11-22T20:18:23.865Z,5.90
2022-11-22T20:21:31.562Z,7.22
2022-11-22T20:24:36.283Z,6.35
2022-11-22T20:27:39.906Z,5.10
2022-11-22T20:30:43.365Z,6.97
2022-11-22T20:33:48.884Z,5.63
2022-11-22T20:36:53.663Z,5.88
2022-11-22T20:39:57.135Z,6.23
2022-11-22T20:43:01.316Z,7.32
2022-11-22T20:46:07.980Z,5.90
2022-11-22T20:49:12.936Z,5.38
2022-11-22T20:52:16.151Z,5.90
2022-11-22T20:55:20.418Z,5.15
2022-11-22T20:58:26.157Z,5.32
2022-11-22T21:01:31.617Z,6.20
2022-11-22T21:04:35.158Z,5.50
2022-11-22T21:07:38.552Z,5.47
2022-11-22T21:10:41.911Z,5.63
2022-11-22T21:13:47.230Z,6.10
2022-11-22T21:16:50.469Z,5.30
2022-11-22T21:19:54.337Z,5.60
2022-11-22T21:22:57.746Z,5.65
2022-11-22T21:26:01.201Z,5.03
2022-11-22T21:29:12.893Z,7.05
2022-11-22T21:32:19.246Z,5.33
2022-11-22T21:35:22.480Z,6.85
2022-11-22T21:38:30.977Z,6.78
2022-11-22T21:41:40.535Z,7.68
2022-11-22T21:44:44.358Z,8.93
2022-11-22T21:47:49.757Z,7.40
2022-11-22T21:50:55.333Z,10.48
2022-11-22T21:53:59.446Z,9.60
2022-11-22T21:57:03.148Z,8.17
2022-11-22T22:00:07.154Z,7.68
2022-11-22T22:03:10.892Z,7.03
2022-11-22T22:06:14.173Z,8.93
2022-11-22T22:09:17.440Z,9.02
2022-11-22T22:12:20.587Z,8.23
2022-11-22T22:15:24.270Z,8.52
2022-11-22T22:18:31.661Z,11.52
2022-11-22T22:21:35.059Z,7.35
2022-11-22T22:24:38.237Z,9.13
2022-11-22T22:27:41.467Z,10.13
2022-11-22T22:30:44.617Z,8.82
2022-11-22T22:33:49.080Z,10.07
2022-11-22T22:36:52.345Z,10.98
2022-11-22T22:39:55.609Z,9.40
2022-11-22T22:42:59.094Z,10.40
2022-11-22T22:46:14.055Z,9.75
2022-11-22T22:49:17.260Z,9.07
2022-11-22T22:52:20.520Z,9.87
2022-11-22T22:55:23.760Z,9.65
2022-11-22T22:58:27.221Z,9.10
2022-11-22T23:01:31.653Z,9.15
2022-11-22T23:04:34.864Z,8.33
2022-11-22T23:07:43.708Z,9.02
2022-11-22T23:10:47.176Z,10.80
2022-11-22T23:13:50.569Z,8.93
2022-11-22T23:16:57.688Z,8.50
2022-11-22T23:20:01.548Z,6.93
2022-11-22T23:23:04.866Z,7.55
2022-11-22T23:26:10.736Z,9.27
2022-11-22T23:29:14.556Z,7.30
2022-11-22T23:32:17.936Z,8.02
2022-11-22T23:35:21.723Z,7.63
2022-11-22T23:38:24.943Z,6.80
2022-11-22T23:41:28.278Z,7.07
2022-11-22T23:44:31.449Z,7.93
2022-11-22T23:47:34.662Z,9.13
2022-11-22T23:50:37.868Z,9.20
2022-11-22T23:53:41.501Z,6.35
2022-11-22T23:56:44.779Z,6.85
2022-11-22T23:59:48.013Z,6.82
